createdAt,value
2022-08-28T00:01:52.595Z,5.68
2022-08-28T00:07:56.078Z,7.60
2022-08-28T00:13:59.584Z,4.43
2022-08-28T00:20:04.986Z,5.43
2022-08-28T00:26:08.498Z,7.10
2022-08-28T00:32:11.888Z,4.75
2022-08-28T00:38:19.267Z,5.85
2022-08-28T00:44:24.378Z,9.00
2022-08-28T00:50:29.243Z,6.47
2022-08-28T00:56:34.208Z,7.65
2022-08-28T01:02:38.168Z,5.55
2022-08-28T01:08:42.543Z,6.63
2022-08-28T01:14:49.066Z,8.38
2022-08-28T01:20:56.419Z,5.18
2022-08-28T01:27:01.239Z,8.63
2022-08-28T01:33:04.620Z,7.00
2022-08-28T01:39:10.000Z,6.43
2022-08-28T01:45:16.017Z,6.65
2022-08-28T01:51:24.398Z,7.78
2022-08-28T01:57:28.515Z,7.63
2022-08-28T02:03:33.732Z,6.85
2022-08-28T02:09:37.127Z,6.63
2022-08-28T02:15:41.934Z,5.10
2022-08-28T02:21:46.738Z,9.30
2022-08-28T02:27:50.436Z,7.03
2022-08-28T02:33:53.991Z,9.05
2022-08-28T02:40:02.558Z,7.45
2022-08-28T02:46:06.069Z,7.38
2022-08-28T02:52:09.897Z,8.07
2022-08-28T02:58:14.934Z,7.03
2022-08-28T03:04:18.389Z,9.95
2022-08-28T03:10:22.719Z,8.95
2022-08-28T03:16:27.577Z,8.15
2022-08-28T03:22:44.875Z,7.97
2022-08-28T03:28:49.383Z,8.57
2022-08-28T03:34:54.518Z,8.77
2022-08-28T03:40:57.912Z,8.35
2022-08-28T03:47:02.037Z,9.52
2022-08-28T03:53:06.894Z,7.90
2022-08-28T03:59:10.551Z,9.18
2022-08-28T04:05:14.633Z,9.82
2022-08-28T04:11:19.367Z,6.93
2022-08-28T04:17:22.901Z,8.27
2022-08-28T04:23:26.544Z,7.60
2022-08-28T04:29:31.943Z,5.88
2022-08-28T04:35:35.403Z,8.07
2022-08-28T04:41:39.873Z,8.85
2022-08-28T04:47:44.804Z,8.40
2022-08-28T04:53:48.180Z,6.75
2022-08-28T04:59:51.607Z,7.03
2022-08-28T05:05:56.321Z,6.70
2022-08-28T05:12:03.369Z,6.70
2022-08-28T05:18:06.903Z,6.57
2022-08-28T05:24:12.763Z,6.05
2022-08-28T05:30:16.237Z,8.00
2022-08-28T05:36:20.404Z,7.45
2022-08-28T05:42:31.056Z,8.05
2022-08-28T05:48:37.203Z,7.88
2022-08-28T05:54:43.453Z,8.68
2022-08-28T06:00:48.166Z,8.07
2022-08-28T06:06:51.876Z,9.02
2022-08-28T06:12:55.456Z,7.68
2022-08-28T06:19:01.486Z,6.80
2022-08-28T06:25:08.137Z,5.40
2022-08-28T06:31:23.646Z,6.85
2022-08-28T06:37:30.204Z,9.48
2022-08-28T06:43:33.594Z,6.20
2022-08-28T06:49:36.974Z,9.07
2022-08-28T06:55:43.136Z,9.27
2022-08-28T07:01:46.612Z,7.13
2022-08-28T07:07:50.020Z,7.97
2022-08-28T07:13:55.217Z,6.78
2022-08-28T07:19:59.024Z,7.82
2022-08-28T07:26:05.081Z,9.52
2022-08-28T07:32:10.065Z,5.78
2022-08-28T07:38:13.542Z,6.10
2022-08-28T07:44:35.476Z,6.85
2022-08-28T07:50:41.519Z,6.93
2022-08-28T07:56:45.696Z,5.43
2022-08-28T08:02:49.046Z,4.80
2022-08-28T08:08:53.799Z,5.68
2022-08-28T08:14:57.252Z,9.57
2022-08-28T08:21:00.751Z,4.85
2022-08-28T08:27:06.750Z,6.95
2022-08-28T08:33:10.174Z,7.35
2022-08-28T08:39:14.067Z,5.75
2022-08-28T08:45:21.468Z,5.40
2022-08-28T08:51:28.674Z,4.47
2022-08-28T08:57:32.636Z,4.63
2022-08-28T09:03:46.380Z,4.10
2022-08-28T09:09:51.073Z,3.55
2022-08-28T09:15:54.608Z,4.28
2022-08-28T09:21:59.550Z,2.42
2022-08-28T09:28:08.402Z,4.60
2022-08-28T09:34:19.904Z,2.55
2022-08-28T09:40:26.457Z,4.00
2022-08-28T09:46:31.091Z,3.85
2022-08-28T09:52:34.938Z,4.80
2022-08-28T09:58:41.813Z,3.25
2022-08-28T10:04:50.500Z,4.30
2022-08-28T10:10:57.932Z,4.75
2022-08-28T10:17:07.039Z,4.43
2022-08-28T10:23:17.532Z,4.40
2022-08-28T10:29:25.606Z,5.20
2022-08-28T10:35:37.397Z,5.25
2022-08-28T10:41:44.783Z,5.60
2022-08-28T10:47:51.176Z,3.45
2022-08-28T10:53:58.081Z,4.43
2022-08-28T11:00:02.251Z,3.53
2022-08-28T11:06:08.390Z,4.32
2022-08-28T11:12:34.347Z,4.47
2022-08-28T11:18:47.358Z,4.82
2022-08-28T11:25:01.730Z,2.75
2022-08-28T11:31:29.225Z,3.03
2022-08-28T11:37:41.535Z,3.97
2022-08-28T11:43:46.497Z,4.10
2022-08-28T11:49:50.087Z,2.90
2022-08-28T11:56:06.189Z,3.88
2022-08-28T12:02:28.300Z,5.10
2022-08-28T12:08:51.312Z,6.40
2022-08-28T12:15:03.924Z,5.32
2022-08-28T12:21:14.025Z,5.88
2022-08-28T12:27:19.659Z,3.05
2022-08-28T12:33:27.079Z,2.20
2022-08-28T12:39:33.574Z,2.50
2022-08-28T12:45:39.344Z,5.65
2022-08-28T12:51:42.774Z,3.55
2022-08-28T12:57:49.317Z,3.90
2022-08-28T13:03:53.887Z,2.63
2022-08-28T13:09:58.779Z,1.73
2022-08-28T13:16:04.544Z,2.33
2022-08-28T13:22:09.362Z,4.03
2022-08-28T13:28:14.818Z,6.45
2022-08-28T13:34:26.297Z,2.65
2022-08-28T13:40:56.260Z,1.83
2022-08-28T13:46:55.728Z,1.42
2022-08-28T13:53:00.521Z,2.85
2022-08-28T13:59:03.965Z,3.08
2022-08-28T14:05:07.839Z,3.22
2022-08-28T14:11:16.227Z,2.53
2022-08-28T14:17:21.349Z,3.50
2022-08-28T14:23:24.855Z,2.72
2022-08-28T14:29:31.441Z,2.25
2022-08-28T14:35:35.372Z,2.53
2022-08-28T14:41:39.121Z,2.65
2022-08-28T14:47:45.503Z,3.10
2022-08-28T14:53:48.868Z,5.68
2022-08-28T14:59:52.417Z,1.70
2022-08-28T15:06:02.689Z,1.92
2022-08-28T15:12:06.345Z,2.70
2022-08-28T15:18:10.471Z,1.33
2022-08-28T15:24:16.128Z,3.63
2022-08-28T15:30:19.538Z,2.28
2022-08-28T15:36:23.062Z,1.95
2022-08-28T15:42:28.140Z,2.25
2022-08-28T15:48:33.721Z,3.00
2022-08-28T15:54:37.681Z,3.83
2022-08-28T16:00:42.753Z,4.30
2022-08-28T16:06:46.363Z,3.13
2022-08-28T16:12:49.873Z,2.88
2022-08-28T16:19:02.808Z,6.60
2022-08-28T16:25:06.842Z,3.83
2022-08-28T16:31:19.282Z,5.78
2022-08-28T16:37:26.124Z,4.75
2022-08-28T16:43:41.452Z,4.28
2022-08-28T16:49:44.850Z,4.13
2022-08-28T16:55:49.718Z,2.20
2022-08-28T17:01:53.889Z,3.38
2022-08-28T17:07:58.927Z,3.45
2022-08-28T17:14:03.966Z,2.75
2022-08-28T17:20:08.842Z,5.03
2022-08-28T17:26:12.218Z,3.40
2022-08-28T17:32:16.957Z,4.28
2022-08-28T17:38:20.342Z,4.32
2022-08-28T17:44:24.306Z,2.25
2022-08-28T17:50:29.087Z,5.07
2022-08-28T17:56:35.876Z,4.07
2022-08-28T18:02:40.287Z,3.38
2022-08-28T18:08:47.721Z,3.53
2022-08-28T18:14:51.066Z,1.77
2022-08-28T18:20:54.728Z,5.07
2022-08-28T18:26:59.521Z,2.95
2022-08-28T18:33:04.000Z,2.20
2022-08-28T18:39:07.691Z,4.55
2022-08-28T18:45:13.094Z,2.78
2022-08-28T18:51:16.761Z,3.95
2022-08-28T18:57:25.406Z,3.75
2022-08-28T19:03:30.564Z,3.00
2022-08-28T19:09:34.954Z,2.42
2022-08-28T19:15:38.846Z,2.85
2022-08-28T19:21:44.073Z,2.88
2022-08-28T19:27:47.677Z,2.60
2022-08-28T19:33:54.994Z,2.70
2022-08-28T19:39:59.796Z,2.95
2022-08-28T19:46:03.323Z,2.05
2022-08-28T19:52:08.294Z,2.60
2022-08-28T19:58:13.532Z,5.47
2022-08-28T20:04:17.756Z,5.00
2022-08-28T20:10:21.502Z,4.88
2022-08-28T20:16:27.073Z,4.72
2022-08-28T20:22:32.170Z,3.65
2022-08-28T20:28:36.584Z,4.32
2022-08-28T20:34:44.510Z,2.78
2022-08-28T20:40:48.196Z,2.47
2022-08-28T20:46:51.813Z,3.17
2022-08-28T20:53:02.947Z,2.33
2022-08-28T20:59:06.584Z,2.13
2022-08-28T21:05:10.346Z,3.47
2022-08-28T21:11:15.243Z,4.80
2022-08-28T21:17:29.867Z,2.95
2022-08-28T21:23:34.348Z,2.25
2022-08-28T21:29:39.209Z,3.13
2022-08-28T21:35:43.292Z,2.80
2022-08-28T21:41:46.696Z,3.17
2022-08-28T21:47:51.612Z,4.15
2022-08-28T21:53:55.358Z,3.20
2022-08-28T21:59:59.564Z,4.38
2022-08-28T22:06:04.318Z,2.78
2022-08-28T22:12:09.015Z,3.72
2022-08-28T22:18:13.177Z,3.22
2022-08-28T22:24:19.059Z,3.85
2022-08-28T22:30:23.447Z,2.92
2022-08-28T22:36:29.170Z,3.95
2022-08-28T22:42:35.123Z,3.33
2022-08-28T22:48:42.550Z,3.78
2022-08-28T22:54:47.017Z,2.58
2022-08-28T23:00:57.170Z,2.63
2022-08-28T23:07:00.603Z,4.35
2022-08-28T23:13:03.975Z,2.22
2022-08-28T23:19:13.399Z,3.60
2022-08-28T23:25:18.086Z,4.30
2022-08-28T23:31:21.741Z,3.70
2022-08-28T23:37:26.648Z,4.07
2022-08-28T23:43:30.025Z,4.63
2022-08-28T23:49:33.401Z,3.60
2022-08-28T23:55:38.599Z,5.47
